<?xml version="1.0" encoding="UTF-8" standalone="no" ?>
<gpx xmlns="http://www.topografix.com/GPX/1/1" xmlns:xsi="http://www.w3.org/2001/XMLSchema-instance" xsi:schemaLocation="http://www.topografix.com/GPX/1/1 http://www.topografix.com/GPX/1/1/gpx.xsd" version="1.1" creator="VisuGPX - https://www.visugpx.com">
  <metadata>
    <name>Via podiensis Le Puy-Cahors</name>
  </metadata>
  <trk>
    <name><![CDATA[Via podiensis Le Puy-Cahors_9]]></name>
    <trkseg>
      <trkpt lat="44.96099" lon="3.54825">
        <ele>964.03515625</ele>
        <time>2012-06-07T20:46:11Z</time>
      </trkpt>
      <trkpt lat="44.9611" lon="3.54757">
        <ele>967.37890625</ele>
        <time>2012-06-07T20:46:31Z</time>
      </trkpt>
      <trkpt lat="44.96109" lon="3.54696">
        <ele>966.29296875</ele>
        <time>2012-06-07T20:46:51Z</time>
      </trkpt>
      <trkpt lat="44.96083" lon="3.54658">
        <ele>966.0390625</ele>
        <time>2012-06-07T20:47:11Z</time>
      </trkpt>
      <trkpt lat="44.96036" lon="3.54631">
        <ele>966.0703125</ele>
        <time>2012-06-07T20:47:31Z</time>
      </trkpt>
      <trkpt lat="44.96022" lon="3.54613">
        <ele>965.28125</ele>
        <time>2012-06-07T20:47:51Z</time>
      </trkpt>
      <trkpt lat="44.95972" lon="3.54594">
        <ele>966.09765625</ele>
        <time>2012-06-07T20:48:11Z</time>
      </trkpt>
      <trkpt lat="44.95957" lon="3.54595">
        <ele>967.2421875</ele>
        <time>2012-06-07T20:48:31Z</time>
      </trkpt>
      <trkpt lat="44.95907" lon="3.54546">
        <ele>965.18359375</ele>
        <time>2012-06-07T20:48:51Z</time>
      </trkpt>
      <trkpt lat="44.95883" lon="3.54443">
        <ele>956.33203125</ele>
        <time>2012-06-07T20:49:11Z</time>
      </trkpt>
      <trkpt lat="44.95837" lon="3.54373">
        <ele>952.91015625</ele>
        <time>2012-06-07T20:49:31Z</time>
      </trkpt>
      <trkpt lat="44.958" lon="3.5429">
        <ele>947.80859375</ele>
        <time>2012-06-07T20:49:51Z</time>
      </trkpt>
      <trkpt lat="44.95751" lon="3.54236">
        <ele>944.234375</ele>
        <time>2012-06-07T20:50:11Z</time>
      </trkpt>
      <trkpt lat="44.95627" lon="3.54149">
        <ele>938.22265625</ele>
        <time>2012-06-07T20:50:31Z</time>
      </trkpt>
      <trkpt lat="44.95601" lon="3.54095">
        <ele>937.140625</ele>
        <time>2012-06-07T20:50:51Z</time>
      </trkpt>
      <trkpt lat="44.95595" lon="3.54018">
        <ele>938</ele>
        <time>2012-06-07T20:51:11Z</time>
      </trkpt>
      <trkpt lat="44.95554" lon="3.53863">
        <ele>939</ele>
        <time>2012-06-07T20:51:31Z</time>
      </trkpt>
      <trkpt lat="44.95515" lon="3.53866">
        <ele>939</ele>
        <time>2012-06-07T20:51:51Z</time>
      </trkpt>
      <trkpt lat="44.95451" lon="3.53836">
        <ele>939</ele>
        <time>2012-06-07T20:52:11Z</time>
      </trkpt>
      <trkpt lat="44.95363" lon="3.5375">
        <ele>939.66796875</ele>
        <time>2012-06-07T20:52:31Z</time>
      </trkpt>
      <trkpt lat="44.95311" lon="3.53721">
        <ele>939</ele>
        <time>2012-06-07T20:52:51Z</time>
      </trkpt>
      <trkpt lat="44.95278" lon="3.53709">
        <ele>939</ele>
        <time>2012-06-07T20:53:11Z</time>
      </trkpt>
      <trkpt lat="44.95254" lon="3.5368">
        <ele>939</ele>
        <time>2012-06-07T20:53:31Z</time>
      </trkpt>
      <trkpt lat="44.95238" lon="3.53618">
        <ele>940</ele>
        <time>2012-06-07T20:53:51Z</time>
      </trkpt>
      <trkpt lat="44.95217" lon="3.53562">
        <ele>940.4296875</ele>
        <time>2012-06-07T20:54:11Z</time>
      </trkpt>
      <trkpt lat="44.95108" lon="3.53344">
        <ele>941.421875</ele>
        <time>2012-06-07T20:54:31Z</time>
      </trkpt>
      <trkpt lat="44.95051" lon="3.53292">
        <ele>943.0546875</ele>
        <time>2012-06-07T20:54:51Z</time>
      </trkpt>
      <trkpt lat="44.95021" lon="3.53275">
        <ele>943.703125</ele>
        <time>2012-06-07T20:55:11Z</time>
      </trkpt>
      <trkpt lat="44.95016" lon="3.53257">
        <ele>945</ele>
        <time>2012-06-07T20:55:31Z</time>
      </trkpt>
      <trkpt lat="44.9495" lon="3.5326">
        <ele>946.09375</ele>
        <time>2012-06-07T20:55:51Z</time>
      </trkpt>
      <trkpt lat="44.94827" lon="3.53214">
        <ele>953.1875</ele>
        <time>2012-06-07T20:56:11Z</time>
      </trkpt>
      <trkpt lat="44.94745" lon="3.53141">
        <ele>959.94921875</ele>
        <time>2012-06-07T20:56:31Z</time>
      </trkpt>
      <trkpt lat="44.94633" lon="3.53069">
        <ele>969.1640625</ele>
        <time>2012-06-07T20:56:51Z</time>
      </trkpt>
      <trkpt lat="44.9458" lon="3.53027">
        <ele>973.5703125</ele>
        <time>2012-06-07T20:57:11Z</time>
      </trkpt>
      <trkpt lat="44.94498" lon="3.52993">
        <ele>977.01953125</ele>
        <time>2012-06-07T20:57:31Z</time>
      </trkpt>
      <trkpt lat="44.94451" lon="3.52912">
        <ele>981.85546875</ele>
        <time>2012-06-07T20:57:51Z</time>
      </trkpt>
      <trkpt lat="44.94352" lon="3.52807">
        <ele>992.96484375</ele>
        <time>2012-06-07T20:58:11Z</time>
      </trkpt>
      <trkpt lat="44.9432" lon="3.52786">
        <ele>996.73828125</ele>
        <time>2012-06-07T20:58:31Z</time>
      </trkpt>
      <trkpt lat="44.94298" lon="3.52801">
        <ele>997.51171875</ele>
        <time>2012-06-07T20:58:51Z</time>
      </trkpt>
      <trkpt lat="44.94153" lon="3.52862">
        <ele>997.97265625</ele>
        <time>2012-06-07T20:59:11Z</time>
      </trkpt>
      <trkpt lat="44.94095" lon="3.52843">
        <ele>998.73828125</ele>
        <time>2012-06-07T20:59:31Z</time>
      </trkpt>
      <trkpt lat="44.94015" lon="3.52882">
        <ele>1002.03515625</ele>
        <time>2012-06-07T20:59:51Z</time>
      </trkpt>
      <trkpt lat="44.93987" lon="3.52963">
        <ele>1004.6953125</ele>
        <time>2012-06-07T21:00:11Z</time>
      </trkpt>
      <trkpt lat="44.93937" lon="3.52991">
        <ele>1009.3984375</ele>
        <time>2012-06-07T21:00:31Z</time>
      </trkpt>
      <trkpt lat="44.93867" lon="3.52974">
        <ele>1013.40625</ele>
        <time>2012-06-07T21:00:51Z</time>
      </trkpt>
      <trkpt lat="44.93804" lon="3.52894">
        <ele>1019.5546875</ele>
        <time>2012-06-07T21:01:11Z</time>
      </trkpt>
      <trkpt lat="44.93784" lon="3.52858">
        <ele>1021.37109375</ele>
        <time>2012-06-07T21:01:31Z</time>
      </trkpt>
      <trkpt lat="44.93746" lon="3.52848">
        <ele>1021.734375</ele>
        <time>2012-06-07T21:01:51Z</time>
      </trkpt>
      <trkpt lat="44.93702" lon="3.52861">
        <ele>1020.14453125</ele>
        <time>2012-06-07T21:02:11Z</time>
      </trkpt>
      <trkpt lat="44.9368" lon="3.52845">
        <ele>1020.6875</ele>
        <time>2012-06-07T21:02:31Z</time>
      </trkpt>
      <trkpt lat="44.9357" lon="3.52644">
        <ele>1024.31640625</ele>
        <time>2012-06-07T21:02:51Z</time>
      </trkpt>
      <trkpt lat="44.93547" lon="3.52541">
        <ele>1028.84375</ele>
        <time>2012-06-07T21:03:11Z</time>
      </trkpt>
      <trkpt lat="44.93513" lon="3.52471">
        <ele>1026.41015625</ele>
        <time>2012-06-07T21:03:31Z</time>
      </trkpt>
      <trkpt lat="44.93482" lon="3.52439">
        <ele>1022.5546875</ele>
        <time>2012-06-07T21:03:51Z</time>
      </trkpt>
      <trkpt lat="44.93397" lon="3.5245">
        <ele>1022.87109375</ele>
        <time>2012-06-07T21:04:11Z</time>
      </trkpt>
      <trkpt lat="44.93258" lon="3.52448">
        <ele>1030.31640625</ele>
        <time>2012-06-07T21:04:31Z</time>
      </trkpt>
      <trkpt lat="44.93218" lon="3.52431">
        <ele>1033.80859375</ele>
        <time>2012-06-07T21:04:51Z</time>
      </trkpt>
      <trkpt lat="44.93128" lon="3.52413">
        <ele>1040.33984375</ele>
        <time>2012-06-07T21:05:11Z</time>
      </trkpt>
      <trkpt lat="44.9309" lon="3.52349">
        <ele>1041.29296875</ele>
        <time>2012-06-07T21:05:31Z</time>
      </trkpt>
      <trkpt lat="44.93027" lon="3.52311">
        <ele>1039.8828125</ele>
        <time>2012-06-07T21:05:51Z</time>
      </trkpt>
      <trkpt lat="44.92968" lon="3.52303">
        <ele>1042.08984375</ele>
        <time>2012-06-07T21:06:11Z</time>
      </trkpt>
      <trkpt lat="44.92874" lon="3.52242">
        <ele>1045.39453125</ele>
        <time>2012-06-07T21:06:31Z</time>
      </trkpt>
      <trkpt lat="44.92828" lon="3.52229">
        <ele>1048.90234375</ele>
        <time>2012-06-07T21:06:51Z</time>
      </trkpt>
      <trkpt lat="44.92783" lon="3.52151">
        <ele>1051.796875</ele>
        <time>2012-06-07T21:07:11Z</time>
      </trkpt>
      <trkpt lat="44.92741" lon="3.52118">
        <ele>1057.33984375</ele>
        <time>2012-06-07T21:07:31Z</time>
      </trkpt>
      <trkpt lat="44.92647" lon="3.52058">
        <ele>1062</ele>
        <time>2012-06-07T21:07:51Z</time>
      </trkpt>
      <trkpt lat="44.9262" lon="3.52006">
        <ele>1061.9921875</ele>
        <time>2012-06-07T21:08:11Z</time>
      </trkpt>
      <trkpt lat="44.92571" lon="3.51935">
        <ele>1061.5625</ele>
        <time>2012-06-07T21:08:31Z</time>
      </trkpt>
      <trkpt lat="44.92516" lon="3.51876">
        <ele>1062</ele>
        <time>2012-06-07T21:08:51Z</time>
      </trkpt>
      <trkpt lat="44.92427" lon="3.51749">
        <ele>1063.3203125</ele>
        <time>2012-06-07T21:09:11Z</time>
      </trkpt>
      <trkpt lat="44.92385" lon="3.51659">
        <ele>1064</ele>
        <time>2012-06-07T21:09:31Z</time>
      </trkpt>
      <trkpt lat="44.92326" lon="3.5161">
        <ele>1065</ele>
        <time>2012-06-07T21:09:51Z</time>
      </trkpt>
      <trkpt lat="44.92217" lon="3.5135">
        <ele>1060.859375</ele>
        <time>2012-06-07T21:10:11Z</time>
      </trkpt>
      <trkpt lat="44.92139" lon="3.51029">
        <ele>1066.5390625</ele>
        <time>2012-06-07T21:10:31Z</time>
      </trkpt>
      <trkpt lat="44.92033" lon="3.50773">
        <ele>1048.4453125</ele>
        <time>2012-06-07T21:10:51Z</time>
      </trkpt>
      <trkpt lat="44.91971" lon="3.50636">
        <ele>1042.67578125</ele>
        <time>2012-06-07T21:11:11Z</time>
      </trkpt>
      <trkpt lat="44.91925" lon="3.50594">
        <ele>1040.828125</ele>
        <time>2012-06-07T21:11:31Z</time>
      </trkpt>
      <trkpt lat="44.91897" lon="3.50493">
        <ele>1040.1875</ele>
        <time>2012-06-07T21:11:51Z</time>
      </trkpt>
      <trkpt lat="44.9187" lon="3.50481">
        <ele>1041.44921875</ele>
        <time>2012-06-07T21:12:11Z</time>
      </trkpt>
      <trkpt lat="44.91821" lon="3.50495">
        <ele>1048.609375</ele>
        <time>2012-06-07T21:12:31Z</time>
      </trkpt>
      <trkpt lat="44.91785" lon="3.50485">
        <ele>1055.07421875</ele>
        <time>2012-06-07T21:12:51Z</time>
      </trkpt>
      <trkpt lat="44.91768" lon="3.50468">
        <ele>1058.15625</ele>
        <time>2012-06-07T21:13:11Z</time>
      </trkpt>
      <trkpt lat="44.91751" lon="3.50468">
        <ele>1060.9453125</ele>
        <time>2012-06-07T21:13:31Z</time>
      </trkpt>
      <trkpt lat="44.917" lon="3.50416">
        <ele>1065.21484375</ele>
        <time>2012-06-07T21:13:51Z</time>
      </trkpt>
      <trkpt lat="44.9166" lon="3.50407">
        <ele>1067.05859375</ele>
        <time>2012-06-07T21:14:11Z</time>
      </trkpt>
      <trkpt lat="44.91595" lon="3.50425">
        <ele>1070.09765625</ele>
        <time>2012-06-07T21:14:31Z</time>
      </trkpt>
      <trkpt lat="44.9157" lon="3.50445">
        <ele>1071.953125</ele>
        <time>2012-06-07T21:14:51Z</time>
      </trkpt>
      <trkpt lat="44.91513" lon="3.50469">
        <ele>1077.02734375</ele>
        <time>2012-06-07T21:15:11Z</time>
      </trkpt>
      <trkpt lat="44.91486" lon="3.50462">
        <ele>1079.95703125</ele>
        <time>2012-06-07T21:15:31Z</time>
      </trkpt>
      <trkpt lat="44.91327" lon="3.50387">
        <ele>1098.05078125</ele>
        <time>2012-06-07T21:15:51Z</time>
      </trkpt>
      <trkpt lat="44.91243" lon="3.50387">
        <ele>1101.28125</ele>
        <time>2012-06-07T21:16:11Z</time>
      </trkpt>
      <trkpt lat="44.91189" lon="3.50406">
        <ele>1099.49609375</ele>
        <time>2012-06-07T21:16:31Z</time>
      </trkpt>
      <trkpt lat="44.9111" lon="3.50424">
        <ele>1093.5625</ele>
        <time>2012-06-07T21:16:51Z</time>
      </trkpt>
      <trkpt lat="44.91078" lon="3.50488">
        <ele>1086.73046875</ele>
        <time>2012-06-07T21:17:11Z</time>
      </trkpt>
      <trkpt lat="44.91042" lon="3.50499">
        <ele>1086.3359375</ele>
        <time>2012-06-07T21:17:31Z</time>
      </trkpt>
      <trkpt lat="44.91018" lon="3.50524">
        <ele>1085.44921875</ele>
        <time>2012-06-07T21:17:51Z</time>
      </trkpt>
      <trkpt lat="44.91001" lon="3.5053">
        <ele>1085.3359375</ele>
        <time>2012-06-07T21:18:11Z</time>
      </trkpt>
      <trkpt lat="44.90947" lon="3.50477">
        <ele>1089.140625</ele>
        <time>2012-06-07T21:18:31Z</time>
      </trkpt>
      <trkpt lat="44.90965" lon="3.50468">
        <ele>1089.22265625</ele>
        <time>2012-06-07T21:18:51Z</time>
      </trkpt>
      <trkpt lat="44.90967" lon="3.50402">
        <ele>1090.94921875</ele>
        <time>2012-06-07T21:19:11Z</time>
      </trkpt>
      <trkpt lat="44.90951" lon="3.50383">
        <ele>1091</ele>
        <time>2012-06-07T21:19:31Z</time>
      </trkpt>
      <trkpt lat="44.90891" lon="3.50363">
        <ele>1091</ele>
        <time>2012-06-07T21:19:51Z</time>
      </trkpt>
      <trkpt lat="44.90831" lon="3.50253">
        <ele>1092.578125</ele>
        <time>2012-06-07T21:20:11Z</time>
      </trkpt>
      <trkpt lat="44.90773" lon="3.50194">
        <ele>1094.3359375</ele>
        <time>2012-06-07T21:20:31Z</time>
      </trkpt>
      <trkpt lat="44.90609" lon="3.50193">
        <ele>1096.62890625</ele>
        <time>2012-06-07T21:20:51Z</time>
      </trkpt>
      <trkpt lat="44.90558" lon="3.50205">
        <ele>1098.9921875</ele>
        <time>2012-06-07T21:21:11Z</time>
      </trkpt>
      <trkpt lat="44.90471" lon="3.50187">
        <ele>1102.11328125</ele>
        <time>2012-06-07T21:21:31Z</time>
      </trkpt>
      <trkpt lat="44.90412" lon="3.5019">
        <ele>1105.5546875</ele>
        <time>2012-06-07T21:21:51Z</time>
      </trkpt>
      <trkpt lat="44.90372" lon="3.50168">
        <ele>1107.70703125</ele>
        <time>2012-06-07T21:22:11Z</time>
      </trkpt>
      <trkpt lat="44.90316" lon="3.5011">
        <ele>1110.671875</ele>
        <time>2012-06-07T21:22:31Z</time>
      </trkpt>
      <trkpt lat="44.90217" lon="3.50055">
        <ele>1114.01953125</ele>
        <time>2012-06-07T21:22:51Z</time>
      </trkpt>
      <trkpt lat="44.90138" lon="3.5003">
        <ele>1113.3046875</ele>
        <time>2012-06-07T21:23:11Z</time>
      </trkpt>
      <trkpt lat="44.89982" lon="3.50051">
        <ele>1119.625</ele>
        <time>2012-06-07T21:23:31Z</time>
      </trkpt>
      <trkpt lat="44.89937" lon="3.50063">
        <ele>1120.89453125</ele>
        <time>2012-06-07T21:23:51Z</time>
      </trkpt>
      <trkpt lat="44.89878" lon="3.50093">
        <ele>1123.9609375</ele>
        <time>2012-06-07T21:24:11Z</time>
      </trkpt>
      <trkpt lat="44.89727" lon="3.50032">
        <ele>1133.64453125</ele>
        <time>2012-06-07T21:24:31Z</time>
      </trkpt>
      <trkpt lat="44.89616" lon="3.5">
        <ele>1145.36328125</ele>
        <time>2012-06-07T21:24:51Z</time>
      </trkpt>
      <trkpt lat="44.89582" lon="3.49998">
        <ele>1149.09765625</ele>
        <time>2012-06-07T21:25:11Z</time>
      </trkpt>
      <trkpt lat="44.89482" lon="3.50027">
        <ele>1154.3515625</ele>
        <time>2012-06-07T21:25:31Z</time>
      </trkpt>
      <trkpt lat="44.89441" lon="3.50016">
        <ele>1154.09375</ele>
        <time>2012-06-07T21:25:51Z</time>
      </trkpt>
      <trkpt lat="44.89307" lon="3.49941">
        <ele>1141.5390625</ele>
        <time>2012-06-07T21:26:11Z</time>
      </trkpt>
      <trkpt lat="44.89268" lon="3.49875">
        <ele>1139.96484375</ele>
        <time>2012-06-07T21:26:31Z</time>
      </trkpt>
      <trkpt lat="44.89247" lon="3.49851">
        <ele>1138.83984375</ele>
        <time>2012-06-07T21:26:51Z</time>
      </trkpt>
      <trkpt lat="44.89129" lon="3.49636">
        <ele>1143.671875</ele>
        <time>2012-06-07T21:27:11Z</time>
      </trkpt>
      <trkpt lat="44.89063" lon="3.49623">
        <ele>1138.265625</ele>
        <time>2012-06-07T21:27:31Z</time>
      </trkpt>
      <trkpt lat="44.89026" lon="3.49595">
        <ele>1136.65234375</ele>
        <time>2012-06-07T21:27:51Z</time>
      </trkpt>
      <trkpt lat="44.89003" lon="3.49557">
        <ele>1136.42578125</ele>
        <time>2012-06-07T21:28:11Z</time>
      </trkpt>
      <trkpt lat="44.88996" lon="3.49532">
        <ele>1136.828125</ele>
        <time>2012-06-07T21:28:31Z</time>
      </trkpt>
      <trkpt lat="44.88976" lon="3.49502">
        <ele>1137.12109375</ele>
        <time>2012-06-07T21:28:51Z</time>
      </trkpt>
      <trkpt lat="44.88953" lon="3.49489">
        <ele>1137.4609375</ele>
        <time>2012-06-07T21:29:11Z</time>
      </trkpt>
      <trkpt lat="44.8892" lon="3.49499">
        <ele>1136.31640625</ele>
        <time>2012-06-07T21:29:31Z</time>
      </trkpt>
      <trkpt lat="44.88813" lon="3.4943">
        <ele>1141.81640625</ele>
        <time>2012-06-07T21:29:51Z</time>
      </trkpt>
      <trkpt lat="44.88746" lon="3.49566">
        <ele>1151.4140625</ele>
        <time>2012-06-07T21:30:11Z</time>
      </trkpt>
      <trkpt lat="44.88641" lon="3.49669">
        <ele>1154.9609375</ele>
        <time>2012-06-07T21:30:31Z</time>
      </trkpt>
      <trkpt lat="44.88584" lon="3.49685">
        <ele>1153.33984375</ele>
        <time>2012-06-07T21:30:51Z</time>
      </trkpt>
      <trkpt lat="44.88435" lon="3.49668">
        <ele>1156.33984375</ele>
        <time>2012-06-07T21:31:11Z</time>
      </trkpt>
      <trkpt lat="44.88397" lon="3.49686">
        <ele>1157.06640625</ele>
        <time>2012-06-07T21:31:31Z</time>
      </trkpt>
      <trkpt lat="44.88324" lon="3.49838">
        <ele>1149.203125</ele>
        <time>2012-06-07T21:31:51Z</time>
      </trkpt>
      <trkpt lat="44.88278" lon="3.49881">
        <ele>1145.828125</ele>
        <time>2012-06-07T21:32:11Z</time>
      </trkpt>
      <trkpt lat="44.88217" lon="3.49908">
        <ele>1140.7109375</ele>
        <time>2012-06-07T21:32:31Z</time>
      </trkpt>
      <trkpt lat="44.88195" lon="3.49892">
        <ele>1139.82421875</ele>
        <time>2012-06-07T21:32:51Z</time>
      </trkpt>
      <trkpt lat="44.88145" lon="3.49906">
        <ele>1132.1875</ele>
        <time>2012-06-07T21:33:11Z</time>
      </trkpt>
      <trkpt lat="44.88095" lon="3.49952">
        <ele>1122.3828125</ele>
        <time>2012-06-07T21:33:31Z</time>
      </trkpt>
      <trkpt lat="44.88089" lon="3.4993">
        <ele>1121.78515625</ele>
        <time>2012-06-07T21:33:51Z</time>
      </trkpt>
      <trkpt lat="44.88044" lon="3.49933">
        <ele>1113.13671875</ele>
        <time>2012-06-07T21:34:11Z</time>
      </trkpt>
      <trkpt lat="44.88022" lon="3.49946">
        <ele>1108.59375</ele>
        <time>2012-06-07T21:34:31Z</time>
      </trkpt>
      <trkpt lat="44.88022" lon="3.49997">
        <ele>1106.81640625</ele>
        <time>2012-06-07T21:34:51Z</time>
      </trkpt>
      <trkpt lat="44.88012" lon="3.50012">
        <ele>1104.1171875</ele>
        <time>2012-06-07T21:35:11Z</time>
      </trkpt>
      <trkpt lat="44.8799" lon="3.49995">
        <ele>1100.49609375</ele>
        <time>2012-06-07T21:35:31Z</time>
      </trkpt>
      <trkpt lat="44.87954" lon="3.50014">
        <ele>1096.203125</ele>
        <time>2012-06-07T21:35:51Z</time>
      </trkpt>
      <trkpt lat="44.87885" lon="3.50021">
        <ele>1094.13671875</ele>
        <time>2012-06-07T21:36:11Z</time>
      </trkpt>
      <trkpt lat="44.87858" lon="3.50004">
        <ele>1094.6796875</ele>
        <time>2012-06-07T21:36:31Z</time>
      </trkpt>
      <trkpt lat="44.87832" lon="3.50004">
        <ele>1096.1171875</ele>
        <time>2012-06-07T21:36:51Z</time>
      </trkpt>
      <trkpt lat="44.87787" lon="3.50131">
        <ele>1102.5625</ele>
        <time>2012-06-07T21:37:11Z</time>
      </trkpt>
      <trkpt lat="44.87738" lon="3.5011">
        <ele>1106.62890625</ele>
        <time>2012-06-07T21:37:31Z</time>
      </trkpt>
      <trkpt lat="44.87713" lon="3.50141">
        <ele>1110.45703125</ele>
        <time>2012-06-07T21:37:51Z</time>
      </trkpt>
      <trkpt lat="44.87653" lon="3.50183">
        <ele>1119.1875</ele>
        <time>2012-06-07T21:38:11Z</time>
      </trkpt>
      <trkpt lat="44.876" lon="3.50202">
        <ele>1125.91015625</ele>
        <time>2012-06-07T21:38:31Z</time>
      </trkpt>
      <trkpt lat="44.87556" lon="3.50247">
        <ele>1133.5078125</ele>
        <time>2012-06-07T21:38:51Z</time>
      </trkpt>
      <trkpt lat="44.87507" lon="3.50272">
        <ele>1142.75390625</ele>
        <time>2012-06-07T21:39:11Z</time>
      </trkpt>
      <trkpt lat="44.87484" lon="3.50272">
        <ele>1147.35546875</ele>
        <time>2012-06-07T21:39:31Z</time>
      </trkpt>
      <trkpt lat="44.87443" lon="3.50302">
        <ele>1155.34765625</ele>
        <time>2012-06-07T21:39:51Z</time>
      </trkpt>
      <trkpt lat="44.87472" lon="3.50213">
        <ele>1149.34375</ele>
        <time>2012-06-07T21:40:11Z</time>
      </trkpt>
      <trkpt lat="44.87457" lon="3.5004">
        <ele>1140.9453125</ele>
        <time>2012-06-07T21:40:31Z</time>
      </trkpt>
      <trkpt lat="44.87357" lon="3.49751">
        <ele>1119.84765625</ele>
        <time>2012-06-07T21:40:51Z</time>
      </trkpt>
      <trkpt lat="44.87292" lon="3.49652">
        <ele>1109.42578125</ele>
        <time>2012-06-07T21:41:11Z</time>
      </trkpt>
      <trkpt lat="44.87219" lon="3.4961">
        <ele>1105.44921875</ele>
        <time>2012-06-07T21:41:31Z</time>
      </trkpt>
      <trkpt lat="44.87183" lon="3.49519">
        <ele>1099.3515625</ele>
        <time>2012-06-07T21:41:51Z</time>
      </trkpt>
      <trkpt lat="44.87042" lon="3.4958">
        <ele>1108.78515625</ele>
        <time>2012-06-07T21:42:11Z</time>
      </trkpt>
      <trkpt lat="44.86973" lon="3.49572">
        <ele>1111.32421875</ele>
        <time>2012-06-07T21:42:31Z</time>
      </trkpt>
      <trkpt lat="44.86794" lon="3.49625">
        <ele>1118.34375</ele>
        <time>2012-06-07T21:42:51Z</time>
      </trkpt>
      <trkpt lat="44.86735" lon="3.49591">
        <ele>1119</ele>
        <time>2012-06-07T21:43:11Z</time>
      </trkpt>
      <trkpt lat="44.86595" lon="3.49587">
        <ele>1126.046875</ele>
        <time>2012-06-07T21:43:31Z</time>
      </trkpt>
      <trkpt lat="44.865" lon="3.49519">
        <ele>1127.83984375</ele>
        <time>2012-06-07T21:43:51Z</time>
      </trkpt>
      <trkpt lat="44.86428" lon="3.49512">
        <ele>1129.1328125</ele>
        <time>2012-06-07T21:44:11Z</time>
      </trkpt>
      <trkpt lat="44.86396" lon="3.49524">
        <ele>1129.94140625</ele>
        <time>2012-06-07T21:44:31Z</time>
      </trkpt>
      <trkpt lat="44.86385" lon="3.49543">
        <ele>1131.91015625</ele>
        <time>2012-06-07T21:44:51Z</time>
      </trkpt>
      <trkpt lat="44.86337" lon="3.49516">
        <ele>1127.61328125</ele>
        <time>2012-06-07T21:45:11Z</time>
      </trkpt>
      <trkpt lat="44.86287" lon="3.49518">
        <ele>1126.9453125</ele>
        <time>2012-06-07T21:45:31Z</time>
      </trkpt>
      <trkpt lat="44.86171" lon="3.49467">
        <ele>1127.31640625</ele>
        <time>2012-06-07T21:45:51Z</time>
      </trkpt>
      <trkpt lat="44.86134" lon="3.49475">
        <ele>1132.39453125</ele>
        <time>2012-06-07T21:46:11Z</time>
      </trkpt>
      <trkpt lat="44.86074" lon="3.49455">
        <ele>1139.84375</ele>
        <time>2012-06-07T21:46:31Z</time>
      </trkpt>
      <trkpt lat="44.85918" lon="3.49365">
        <ele>1151.32421875</ele>
        <time>2012-06-07T21:46:51Z</time>
      </trkpt>
      <trkpt lat="44.85874" lon="3.49364">
        <ele>1153.5703125</ele>
        <time>2012-06-07T21:47:11Z</time>
      </trkpt>
      <trkpt lat="44.85842" lon="3.49335">
        <ele>1152.1796875</ele>
        <time>2012-06-07T21:47:31Z</time>
      </trkpt>
      <trkpt lat="44.85831" lon="3.49311">
        <ele>1148.9765625</ele>
        <time>2012-06-07T21:47:51Z</time>
      </trkpt>
      <trkpt lat="44.85814" lon="3.49304">
        <ele>1148.1484375</ele>
        <time>2012-06-07T21:48:11Z</time>
      </trkpt>
      <trkpt lat="44.85702" lon="3.49313">
        <ele>1147.71875</ele>
        <time>2012-06-07T21:48:31Z</time>
      </trkpt>
      <trkpt lat="44.85669" lon="3.49347">
        <ele>1152.546875</ele>
        <time>2012-06-07T21:48:51Z</time>
      </trkpt>
      <trkpt lat="44.85649" lon="3.49348">
        <ele>1152.95703125</ele>
        <time>2012-06-07T21:49:11Z</time>
      </trkpt>
      <trkpt lat="44.8567" lon="3.49378">
        <ele>1156.30078125</ele>
        <time>2012-06-07T21:49:31Z</time>
      </trkpt>
      <trkpt lat="44.85664" lon="3.49412">
        <ele>1160.33984375</ele>
        <time>2012-06-07T21:49:51Z</time>
      </trkpt>
      <trkpt lat="44.85669" lon="3.49464">
        <ele>1166.63671875</ele>
        <time>2012-06-07T21:50:11Z</time>
      </trkpt>
      <trkpt lat="44.85635" lon="3.4952">
        <ele>1172.91015625</ele>
        <time>2012-06-07T21:50:31Z</time>
      </trkpt>
      <trkpt lat="44.85545" lon="3.49514">
        <ele>1171.52734375</ele>
        <time>2012-06-07T21:50:51Z</time>
      </trkpt>
      <trkpt lat="44.85465" lon="3.49534">
        <ele>1166.91796875</ele>
        <time>2012-06-07T21:51:11Z</time>
      </trkpt>
      <trkpt lat="44.85423" lon="3.49567">
        <ele>1168.20703125</ele>
        <time>2012-06-07T21:51:31Z</time>
      </trkpt>
      <trkpt lat="44.85367" lon="3.49586">
        <ele>1171.3515625</ele>
        <time>2012-06-07T21:51:51Z</time>
      </trkpt>
      <trkpt lat="44.85325" lon="3.49571">
        <ele>1173.2890625</ele>
        <time>2012-06-07T21:52:11Z</time>
      </trkpt>
      <trkpt lat="44.85221" lon="3.49561">
        <ele>1178.38671875</ele>
        <time>2012-06-07T21:52:31Z</time>
      </trkpt>
      <trkpt lat="44.85108" lon="3.49599">
        <ele>1177.1796875</ele>
        <time>2012-06-07T21:52:51Z</time>
      </trkpt>
      <trkpt lat="44.85065" lon="3.49665">
        <ele>1181.21875</ele>
        <time>2012-06-07T21:53:11Z</time>
      </trkpt>
      <trkpt lat="44.84991" lon="3.49653">
        <ele>1184.1875</ele>
        <time>2012-06-07T21:53:31Z</time>
      </trkpt>
      <trkpt lat="44.84914" lon="3.49745">
        <ele>1197.28515625</ele>
        <time>2012-06-07T21:53:51Z</time>
      </trkpt>
      <trkpt lat="44.84889" lon="3.49733">
        <ele>1198.375</ele>
        <time>2012-06-07T21:54:11Z</time>
      </trkpt>
      <trkpt lat="44.84859" lon="3.49735">
        <ele>1200.66015625</ele>
        <time>2012-06-07T21:54:31Z</time>
      </trkpt>
      <trkpt lat="44.84801" lon="3.4966">
        <ele>1195.41015625</ele>
        <time>2012-06-07T21:54:51Z</time>
      </trkpt>
      <trkpt lat="44.84774" lon="3.49673">
        <ele>1195.9296875</ele>
        <time>2012-06-07T21:55:11Z</time>
      </trkpt>
      <trkpt lat="44.84667" lon="3.49778">
        <ele>1202.296875</ele>
        <time>2012-06-07T21:55:31Z</time>
      </trkpt>
      <trkpt lat="44.84595" lon="3.49806">
        <ele>1205.75390625</ele>
        <time>2012-06-07T21:55:51Z</time>
      </trkpt>
      <trkpt lat="44.84572" lon="3.49822">
        <ele>1208.10546875</ele>
        <time>2012-06-07T21:56:11Z</time>
      </trkpt>
      <trkpt lat="44.84531" lon="3.49824">
        <ele>1208.3359375</ele>
        <time>2012-06-07T21:56:31Z</time>
      </trkpt>
      <trkpt lat="44.8447" lon="3.49855">
        <ele>1215.515625</ele>
        <time>2012-06-07T21:56:51Z</time>
      </trkpt>
      <trkpt lat="44.84334" lon="3.49809">
        <ele>1217.2265625</ele>
        <time>2012-06-07T21:57:11Z</time>
      </trkpt>
      <trkpt lat="44.84292" lon="3.49822">
        <ele>1223.796875</ele>
        <time>2012-06-07T21:57:31Z</time>
      </trkpt>
      <trkpt lat="44.8427" lon="3.49752">
        <ele>1225.19921875</ele>
        <time>2012-06-07T21:57:51Z</time>
      </trkpt>
      <trkpt lat="44.84181" lon="3.49555">
        <ele>1225.6484375</ele>
        <time>2012-06-07T21:58:11Z</time>
      </trkpt>
      <trkpt lat="44.84146" lon="3.49512">
        <ele>1226.890625</ele>
        <time>2012-06-07T21:58:31Z</time>
      </trkpt>
      <trkpt lat="44.84067" lon="3.4952">
        <ele>1238.12890625</ele>
        <time>2012-06-07T21:58:51Z</time>
      </trkpt>
      <trkpt lat="44.84015" lon="3.49568">
        <ele>1248.7578125</ele>
        <time>2012-06-07T21:59:11Z</time>
      </trkpt>
      <trkpt lat="44.83732" lon="3.49574">
        <ele>1281.01953125</ele>
        <time>2012-06-07T21:59:31Z</time>
      </trkpt>
      <trkpt lat="44.83559" lon="3.4954">
        <ele>1291.14453125</ele>
        <time>2012-06-07T21:59:51Z</time>
      </trkpt>
      <trkpt lat="44.83522" lon="3.49551">
        <ele>1294.24609375</ele>
        <time>2012-06-07T22:00:11Z</time>
      </trkpt>
      <trkpt lat="44.835" lon="3.49758">
        <ele>1311.8671875</ele>
        <time>2012-06-07T22:00:31Z</time>
      </trkpt>
      <trkpt lat="44.83471" lon="3.49755">
        <ele>1310.94140625</ele>
        <time>2012-06-07T22:00:51Z</time>
      </trkpt>
      <trkpt lat="44.83232" lon="3.49677">
        <ele>1316.43359375</ele>
        <time>2012-06-07T22:01:11Z</time>
      </trkpt>
      <trkpt lat="44.82995" lon="3.49609">
        <ele>1319.109375</ele>
        <time>2012-06-07T22:01:31Z</time>
      </trkpt>
      <trkpt lat="44.83012" lon="3.49586">
        <ele>1316.76171875</ele>
        <time>2012-06-07T22:01:51Z</time>
      </trkpt>
      <trkpt lat="44.83052" lon="3.49556">
        <ele>1314.1953125</ele>
        <time>2012-06-07T22:02:11Z</time>
      </trkpt>
      <trkpt lat="44.83076" lon="3.49512">
        <ele>1312.02734375</ele>
        <time>2012-06-07T22:02:31Z</time>
      </trkpt>
      <trkpt lat="44.83086" lon="3.49436">
        <ele>1310</ele>
        <time>2012-06-07T22:02:51Z</time>
      </trkpt>
      <trkpt lat="44.83083" lon="3.49396">
        <ele>1310.26171875</ele>
        <time>2012-06-07T22:03:11Z</time>
      </trkpt>
      <trkpt lat="44.83043" lon="3.49308">
        <ele>1304.640625</ele>
        <time>2012-06-07T22:03:31Z</time>
      </trkpt>
      <trkpt lat="44.82991" lon="3.4918">
        <ele>1297.1484375</ele>
        <time>2012-06-07T22:03:51Z</time>
      </trkpt>
      <trkpt lat="44.82936" lon="3.49123">
        <ele>1293.12890625</ele>
        <time>2012-06-07T22:04:11Z</time>
      </trkpt>
      <trkpt lat="44.82795" lon="3.4906">
        <ele>1289.6484375</ele>
        <time>2012-06-07T22:04:31Z</time>
      </trkpt>
      <trkpt lat="44.82713" lon="3.49124">
        <ele>1297.2265625</ele>
        <time>2012-06-07T22:04:51Z</time>
      </trkpt>
      <trkpt lat="44.8259" lon="3.49077">
        <ele>1295.3203125</ele>
        <time>2012-06-07T22:05:11Z</time>
      </trkpt>
      <trkpt lat="44.82478" lon="3.49006">
        <ele>1298.97265625</ele>
        <time>2012-06-07T22:05:31Z</time>
      </trkpt>
      <trkpt lat="44.82452" lon="3.4892">
        <ele>1300.5703125</ele>
        <time>2012-06-07T22:05:51Z</time>
      </trkpt>
      <trkpt lat="44.82447" lon="3.48762">
        <ele>1290.18359375</ele>
        <time>2012-06-07T22:06:11Z</time>
      </trkpt>
      <trkpt lat="44.82429" lon="3.48748">
        <ele>1288.7109375</ele>
        <time>2012-06-07T22:06:31Z</time>
      </trkpt>
      <trkpt lat="44.82344" lon="3.48756">
        <ele>1292.36328125</ele>
        <time>2012-06-07T22:06:51Z</time>
      </trkpt>
      <trkpt lat="44.82317" lon="3.48747">
        <ele>1294.5234375</ele>
        <time>2012-06-07T22:07:11Z</time>
      </trkpt>
      <trkpt lat="44.82318" lon="3.48632">
        <ele>1304.36328125</ele>
        <time>2012-06-07T22:07:31Z</time>
      </trkpt>
      <trkpt lat="44.82335" lon="3.48516">
        <ele>1304.1953125</ele>
        <time>2012-06-07T22:07:51Z</time>
      </trkpt>
      <trkpt lat="44.82335" lon="3.48418">
        <ele>1303.1015625</ele>
        <time>2012-06-07T22:08:11Z</time>
      </trkpt>
      <trkpt lat="44.82294" lon="3.48297">
        <ele>1300.3359375</ele>
        <time>2012-06-07T22:08:31Z</time>
      </trkpt>
      <trkpt lat="44.82207" lon="3.48197">
        <ele>1302.71875</ele>
        <time>2012-06-07T22:08:51Z</time>
      </trkpt>
      <trkpt lat="44.82193" lon="3.48101">
        <ele>1304.7421875</ele>
        <time>2012-06-07T22:09:11Z</time>
      </trkpt>
      <trkpt lat="44.82219" lon="3.48039">
        <ele>1304.21484375</ele>
        <time>2012-06-07T22:09:31Z</time>
      </trkpt>
      <trkpt lat="44.82233" lon="3.47955">
        <ele>1303.1875</ele>
        <time>2012-06-07T22:09:51Z</time>
      </trkpt>
      <trkpt lat="44.82217" lon="3.47852">
        <ele>1305.53125</ele>
        <time>2012-06-07T22:10:11Z</time>
      </trkpt>
      <trkpt lat="44.82231" lon="3.47811">
        <ele>1305.91796875</ele>
        <time>2012-06-07T22:10:31Z</time>
      </trkpt>
      <trkpt lat="44.82284" lon="3.47777">
        <ele>1304.625</ele>
        <time>2012-06-07T22:10:51Z</time>
      </trkpt>
      <trkpt lat="44.82333" lon="3.47676">
        <ele>1302.41796875</ele>
        <time>2012-06-07T22:11:11Z</time>
      </trkpt>
      <trkpt lat="44.82338" lon="3.47626">
        <ele>1302.05859375</ele>
        <time>2012-06-07T22:11:31Z</time>
      </trkpt>
      <trkpt lat="44.82325" lon="3.47542">
        <ele>1306.84375</ele>
        <time>2012-06-07T22:11:51Z</time>
      </trkpt>
      <trkpt lat="44.8235" lon="3.4747">
        <ele>1310.17578125</ele>
        <time>2012-06-07T22:12:11Z</time>
      </trkpt>
      <trkpt lat="44.82396" lon="3.47414">
        <ele>1309.46484375</ele>
        <time>2012-06-07T22:12:31Z</time>
      </trkpt>
      <trkpt lat="44.82464" lon="3.47219">
        <ele>1321.98046875</ele>
        <time>2012-06-07T22:12:51Z</time>
      </trkpt>
      <trkpt lat="44.8255" lon="3.47142">
        <ele>1326.57421875</ele>
        <time>2012-06-07T22:13:11Z</time>
      </trkpt>
      <trkpt lat="44.82602" lon="3.47048">
        <ele>1324.70703125</ele>
        <time>2012-06-07T22:13:31Z</time>
      </trkpt>
      <trkpt lat="44.8263" lon="3.46944">
        <ele>1322.015625</ele>
        <time>2012-06-07T22:13:51Z</time>
      </trkpt>
      <trkpt lat="44.82662" lon="3.46746">
        <ele>1318.34375</ele>
        <time>2012-06-07T22:14:11Z</time>
      </trkpt>
      <trkpt lat="44.8268" lon="3.46709">
        <ele>1316.50390625</ele>
        <time>2012-06-07T22:14:31Z</time>
      </trkpt>
      <trkpt lat="44.82835" lon="3.46606">
        <ele>1311.58984375</ele>
        <time>2012-06-07T22:14:51Z</time>
      </trkpt>
      <trkpt lat="44.82864" lon="3.46606">
        <ele>1311.33203125</ele>
        <time>2012-06-07T22:15:11Z</time>
      </trkpt>
      <trkpt lat="44.82988" lon="3.46706">
        <ele>1303.875</ele>
        <time>2012-06-07T22:15:31Z</time>
      </trkpt>
      <trkpt lat="44.83036" lon="3.46717">
        <ele>1304.58984375</ele>
        <time>2012-06-07T22:15:51Z</time>
      </trkpt>
      <trkpt lat="44.83077" lon="3.46695">
        <ele>1305.93359375</ele>
        <time>2012-06-07T22:16:11Z</time>
      </trkpt>
      <trkpt lat="44.8311" lon="3.46638">
        <ele>1305.41015625</ele>
        <time>2012-06-07T22:16:31Z</time>
      </trkpt>
      <trkpt lat="44.83159" lon="3.46435">
        <ele>1303.58203125</ele>
        <time>2012-06-07T22:16:51Z</time>
      </trkpt>
      <trkpt lat="44.83167" lon="3.46263">
        <ele>1309.65625</ele>
        <time>2012-06-07T22:17:11Z</time>
      </trkpt>
      <trkpt lat="44.83183" lon="3.46236">
        <ele>1308.19140625</ele>
        <time>2012-06-07T22:17:31Z</time>
      </trkpt>
      <trkpt lat="44.83113" lon="3.46074">
        <ele>1300.7109375</ele>
        <time>2012-06-07T22:17:51Z</time>
      </trkpt>
      <trkpt lat="44.83049" lon="3.45797">
        <ele>1286.4375</ele>
        <time>2012-06-07T22:18:11Z</time>
      </trkpt>
      <trkpt lat="44.83044" lon="3.45726">
        <ele>1288.25</ele>
        <time>2012-06-07T22:18:31Z</time>
      </trkpt>
      <trkpt lat="44.83026" lon="3.45682">
        <ele>1290.7109375</ele>
        <time>2012-06-07T22:18:51Z</time>
      </trkpt>
      <trkpt lat="44.82993" lon="3.45647">
        <ele>1291.828125</ele>
        <time>2012-06-07T22:19:11Z</time>
      </trkpt>
      <trkpt lat="44.82848" lon="3.456">
        <ele>1283.06640625</ele>
        <time>2012-06-07T22:19:31Z</time>
      </trkpt>
      <trkpt lat="44.82757" lon="3.45507">
        <ele>1282.40234375</ele>
        <time>2012-06-07T22:19:51Z</time>
      </trkpt>
      <trkpt lat="44.82695" lon="3.45343">
        <ele>1267.53515625</ele>
        <time>2012-06-07T22:20:11Z</time>
      </trkpt>
      <trkpt lat="44.8263" lon="3.45264">
        <ele>1256.0703125</ele>
        <time>2012-06-07T22:20:31Z</time>
      </trkpt>
      <trkpt lat="44.82603" lon="3.45147">
        <ele>1257.40625</ele>
        <time>2012-06-07T22:20:51Z</time>
      </trkpt>
      <trkpt lat="44.82485" lon="3.45068">
        <ele>1246.35546875</ele>
        <time>2012-06-07T22:21:11Z</time>
      </trkpt>
      <trkpt lat="44.82455" lon="3.45036">
        <ele>1243.0703125</ele>
        <time>2012-06-07T22:21:31Z</time>
      </trkpt>
      <trkpt lat="44.82435" lon="3.44971">
        <ele>1238.0078125</ele>
        <time>2012-06-07T22:21:51Z</time>
      </trkpt>
      <trkpt lat="44.82445" lon="3.44885">
        <ele>1233.25390625</ele>
        <time>2012-06-07T22:22:11Z</time>
      </trkpt>
      <trkpt lat="44.82472" lon="3.44828">
        <ele>1233.640625</ele>
        <time>2012-06-07T22:22:31Z</time>
      </trkpt>
      <trkpt lat="44.82466" lon="3.44776">
        <ele>1233.21484375</ele>
        <time>2012-06-07T22:22:51Z</time>
      </trkpt>
      <trkpt lat="44.82444" lon="3.44734">
        <ele>1231.58984375</ele>
        <time>2012-06-07T22:23:11Z</time>
      </trkpt>
      <trkpt lat="44.82422" lon="3.4471">
        <ele>1230.046875</ele>
        <time>2012-06-07T22:23:31Z</time>
      </trkpt>
      <trkpt lat="44.82378" lon="3.44608">
        <ele>1231.546875</ele>
        <time>2012-06-07T22:23:51Z</time>
      </trkpt>
      <trkpt lat="44.82311" lon="3.44571">
        <ele>1232.3984375</ele>
        <time>2012-06-07T22:24:11Z</time>
      </trkpt>
      <trkpt lat="44.82215" lon="3.4449">
        <ele>1230.734375</ele>
        <time>2012-06-07T22:24:31Z</time>
      </trkpt>
      <trkpt lat="44.82138" lon="3.44353">
        <ele>1228.59375</ele>
        <time>2012-06-07T22:24:51Z</time>
      </trkpt>
      <trkpt lat="44.82059" lon="3.44257">
        <ele>1223.34375</ele>
        <time>2012-06-07T22:25:11Z</time>
      </trkpt>
      <trkpt lat="44.82046" lon="3.44219">
        <ele>1222.4375</ele>
        <time>2012-06-07T22:25:31Z</time>
      </trkpt>
      <trkpt lat="44.82019" lon="3.44169">
        <ele>1220.2890625</ele>
        <time>2012-06-07T22:25:51Z</time>
      </trkpt>
      <trkpt lat="44.81979" lon="3.44011">
        <ele>1206.82421875</ele>
        <time>2012-06-07T22:26:11Z</time>
      </trkpt>
      <trkpt lat="44.81908" lon="3.43908">
        <ele>1198.41796875</ele>
        <time>2012-06-07T22:26:31Z</time>
      </trkpt>
      <trkpt lat="44.81862" lon="3.43727">
        <ele>1190.4375</ele>
        <time>2012-06-07T22:26:51Z</time>
      </trkpt>
      <trkpt lat="44.8186" lon="3.43657">
        <ele>1188.046875</ele>
        <time>2012-06-07T22:27:11Z</time>
      </trkpt>
      <trkpt lat="44.81824" lon="3.43434">
        <ele>1180.0703125</ele>
        <time>2012-06-07T22:27:31Z</time>
      </trkpt>
      <trkpt lat="44.81804" lon="3.43389">
        <ele>1176.57421875</ele>
        <time>2012-06-07T22:27:51Z</time>
      </trkpt>
      <trkpt lat="44.81756" lon="3.43188">
        <ele>1160.95703125</ele>
        <time>2012-06-07T22:28:11Z</time>
      </trkpt>
      <trkpt lat="44.81746" lon="3.43174">
        <ele>1159.76953125</ele>
        <time>2012-06-07T22:28:31Z</time>
      </trkpt>
      <trkpt lat="44.81754" lon="3.43024">
        <ele>1157</ele>
        <time>2012-06-07T22:28:51Z</time>
      </trkpt>
      <trkpt lat="44.8173" lon="3.42915">
        <ele>1157.33203125</ele>
        <time>2012-06-07T22:29:11Z</time>
      </trkpt>
      <trkpt lat="44.81619" lon="3.42765">
        <ele>1160.36328125</ele>
        <time>2012-06-07T22:29:31Z</time>
      </trkpt>
      <trkpt lat="44.8157" lon="3.42644">
        <ele>1172.4140625</ele>
        <time>2012-06-07T22:29:51Z</time>
      </trkpt>
      <trkpt lat="44.81442" lon="3.42365">
        <ele>1182.22265625</ele>
        <time>2012-06-07T22:30:11Z</time>
      </trkpt>
      <trkpt lat="44.81351" lon="3.42236">
        <ele>1183.9375</ele>
        <time>2012-06-07T22:30:31Z</time>
      </trkpt>
      <trkpt lat="44.81276" lon="3.42178">
        <ele>1186.10546875</ele>
        <time>2012-06-07T22:30:51Z</time>
      </trkpt>
      <trkpt lat="44.81212" lon="3.42147">
        <ele>1186.1875</ele>
        <time>2012-06-07T22:31:11Z</time>
      </trkpt>
      <trkpt lat="44.81178" lon="3.42103">
        <ele>1187.48828125</ele>
        <time>2012-06-07T22:31:31Z</time>
      </trkpt>
      <trkpt lat="44.81112" lon="3.41951">
        <ele>1190.578125</ele>
        <time>2012-06-07T22:31:51Z</time>
      </trkpt>
      <trkpt lat="44.81072" lon="3.41884">
        <ele>1190.57421875</ele>
        <time>2012-06-07T22:32:11Z</time>
      </trkpt>
      <trkpt lat="44.80949" lon="3.41751">
        <ele>1186.57421875</ele>
        <time>2012-06-07T22:32:31Z</time>
      </trkpt>
      <trkpt lat="44.80861" lon="3.41619">
        <ele>1181.1875</ele>
        <time>2012-06-07T22:32:51Z</time>
      </trkpt>
      <trkpt lat="44.8079" lon="3.41558">
        <ele>1176.89453125</ele>
        <time>2012-06-07T22:33:11Z</time>
      </trkpt>
      <trkpt lat="44.80668" lon="3.4147">
        <ele>1171.3125</ele>
        <time>2012-06-07T22:33:31Z</time>
      </trkpt>
      <trkpt lat="44.80508" lon="3.41341">
        <ele>1161.77734375</ele>
        <time>2012-06-07T22:33:51Z</time>
      </trkpt>
      <trkpt lat="44.80481" lon="3.41304">
        <ele>1158.39453125</ele>
        <time>2012-06-07T22:34:11Z</time>
      </trkpt>
      <trkpt lat="44.80424" lon="3.4124">
        <ele>1146.9140625</ele>
        <time>2012-06-07T22:34:31Z</time>
      </trkpt>
      <trkpt lat="44.80441" lon="3.41128">
        <ele>1138.96484375</ele>
        <time>2012-06-07T22:34:51Z</time>
      </trkpt>
      <trkpt lat="44.80482" lon="3.41048">
        <ele>1137.0390625</ele>
        <time>2012-06-07T22:35:11Z</time>
      </trkpt>
      <trkpt lat="44.80544" lon="3.40964">
        <ele>1133.92578125</ele>
        <time>2012-06-07T22:35:31Z</time>
      </trkpt>
      <trkpt lat="44.80557" lon="3.40896">
        <ele>1130.37109375</ele>
        <time>2012-06-07T22:35:51Z</time>
      </trkpt>
      <trkpt lat="44.80544" lon="3.40903">
        <ele>1128.359375</ele>
        <time>2012-06-07T22:36:11Z</time>
      </trkpt>
      <trkpt lat="44.80529" lon="3.40928">
        <ele>1128.0234375</ele>
        <time>2012-06-07T22:36:31Z</time>
      </trkpt>
      <trkpt lat="44.80459" lon="3.40967">
        <ele>1122.7734375</ele>
        <time>2012-06-07T22:36:51Z</time>
      </trkpt>
      <trkpt lat="44.80366" lon="3.40997">
        <ele>1109.7421875</ele>
        <time>2012-06-07T22:37:11Z</time>
      </trkpt>
      <trkpt lat="44.8034" lon="3.41019">
        <ele>1106.5859375</ele>
        <time>2012-06-07T22:37:31Z</time>
      </trkpt>
      <trkpt lat="44.80262" lon="3.41113">
        <ele>1106.5234375</ele>
        <time>2012-06-07T22:37:51Z</time>
      </trkpt>
      <trkpt lat="44.8024" lon="3.41099">
        <ele>1105.2421875</ele>
        <time>2012-06-07T22:38:11Z</time>
      </trkpt>
      <trkpt lat="44.80267" lon="3.41052">
        <ele>1097.6015625</ele>
        <time>2012-06-07T22:38:31Z</time>
      </trkpt>
      <trkpt lat="44.80303" lon="3.40924">
        <ele>1091.33984375</ele>
        <time>2012-06-07T22:38:51Z</time>
      </trkpt>
      <trkpt lat="44.80303" lon="3.40865">
        <ele>1089.3515625</ele>
        <time>2012-06-07T22:39:11Z</time>
      </trkpt>
      <trkpt lat="44.80246" lon="3.40756">
        <ele>1076.03125</ele>
        <time>2012-06-07T22:39:31Z</time>
      </trkpt>
      <trkpt lat="44.80252" lon="3.40622">
        <ele>1071.7421875</ele>
        <time>2012-06-07T22:39:51Z</time>
      </trkpt>
      <trkpt lat="44.80272" lon="3.40567">
        <ele>1074.07421875</ele>
        <time>2012-06-07T22:40:11Z</time>
      </trkpt>
      <trkpt lat="44.80278" lon="3.40504">
        <ele>1068.4453125</ele>
        <time>2012-06-07T22:40:31Z</time>
      </trkpt>
      <trkpt lat="44.80302" lon="3.40416">
        <ele>1063.36328125</ele>
        <time>2012-06-07T22:40:51Z</time>
      </trkpt>
      <trkpt lat="44.80293" lon="3.40337">
        <ele>1057.64453125</ele>
        <time>2012-06-07T22:41:11Z</time>
      </trkpt>
      <trkpt lat="44.80262" lon="3.40311">
        <ele>1052.44921875</ele>
        <time>2012-06-07T22:41:31Z</time>
      </trkpt>
      <trkpt lat="44.80246" lon="3.40246">
        <ele>1049.37890625</ele>
        <time>2012-06-07T22:41:51Z</time>
      </trkpt>
      <trkpt lat="44.80236" lon="3.40133">
        <ele>1046.56640625</ele>
        <time>2012-06-07T22:42:11Z</time>
      </trkpt>
      <trkpt lat="44.80205" lon="3.40071">
        <ele>1044.2890625</ele>
        <time>2012-06-07T22:42:31Z</time>
      </trkpt>
      <trkpt lat="44.80117" lon="3.40025">
        <ele>1038.78125</ele>
        <time>2012-06-07T22:42:51Z</time>
      </trkpt>
      <trkpt lat="44.80098" lon="3.39978">
        <ele>1037.48828125</ele>
        <time>2012-06-07T22:43:11Z</time>
      </trkpt>
      <trkpt lat="44.80087" lon="3.39985">
        <ele>1036.19921875</ele>
        <time>2012-06-07T22:43:31Z</time>
      </trkpt>
      <trkpt lat="44.80075" lon="3.40027">
        <ele>1034.47265625</ele>
        <time>2012-06-07T22:43:51Z</time>
      </trkpt>
      <trkpt lat="44.79825" lon="3.39938">
        <ele>1019.74609375</ele>
        <time>2012-06-07T22:44:11Z</time>
      </trkpt>
      <trkpt lat="44.79695" lon="3.39855">
        <ele>1015.296875</ele>
        <time>2012-06-07T22:44:31Z</time>
      </trkpt>
      <trkpt lat="44.79617" lon="3.39812">
        <ele>1012.625</ele>
        <time>2012-06-07T22:44:51Z</time>
      </trkpt>
      <trkpt lat="44.79443" lon="3.39573">
        <ele>1002.40625</ele>
        <time>2012-06-07T22:45:11Z</time>
      </trkpt>
      <trkpt lat="44.79425" lon="3.39504">
        <ele>1003.3046875</ele>
        <time>2012-06-07T22:45:31Z</time>
      </trkpt>
      <trkpt lat="44.79373" lon="3.39473">
        <ele>1006.8828125</ele>
        <time>2012-06-07T22:45:51Z</time>
      </trkpt>
      <trkpt lat="44.79306" lon="3.39409">
        <ele>1018.1328125</ele>
        <time>2012-06-07T22:46:11Z</time>
      </trkpt>
      <trkpt lat="44.79277" lon="3.39362">
        <ele>1023.4765625</ele>
        <time>2012-06-07T22:46:31Z</time>
      </trkpt>
      <trkpt lat="44.7924" lon="3.39331">
        <ele>1027.40625</ele>
        <time>2012-06-07T22:46:51Z</time>
      </trkpt>
      <trkpt lat="44.7908" lon="3.3926">
        <ele>1030.16015625</ele>
        <time>2012-06-07T22:47:11Z</time>
      </trkpt>
      <trkpt lat="44.78963" lon="3.39178">
        <ele>1025.76953125</ele>
        <time>2012-06-07T22:47:31Z</time>
      </trkpt>
      <trkpt lat="44.78918" lon="3.39198">
        <ele>1024.69921875</ele>
        <time>2012-06-07T22:47:51Z</time>
      </trkpt>
      <trkpt lat="44.78772" lon="3.39225">
        <ele>1020.08984375</ele>
        <time>2012-06-07T22:48:11Z</time>
      </trkpt>
      <trkpt lat="44.78636" lon="3.3921">
        <ele>1026.74609375</ele>
        <time>2012-06-07T22:48:31Z</time>
      </trkpt>
      <trkpt lat="44.78577" lon="3.39222">
        <ele>1026.57421875</ele>
        <time>2012-06-07T22:48:51Z</time>
      </trkpt>
      <trkpt lat="44.78412" lon="3.39313">
        <ele>1017.3203125</ele>
        <time>2012-06-07T22:49:11Z</time>
      </trkpt>
      <trkpt lat="44.78318" lon="3.39349">
        <ele>1012.6796875</ele>
        <time>2012-06-07T22:49:31Z</time>
      </trkpt>
      <trkpt lat="44.78234" lon="3.3921">
        <ele>1011.0078125</ele>
        <time>2012-06-07T22:49:51Z</time>
      </trkpt>
      <trkpt lat="44.78111" lon="3.39202">
        <ele>1008.50390625</ele>
        <time>2012-06-07T22:50:11Z</time>
      </trkpt>
      <trkpt lat="44.78038" lon="3.39227">
        <ele>1008.95703125</ele>
        <time>2012-06-07T22:50:31Z</time>
      </trkpt>
      <trkpt lat="44.77964" lon="3.39142">
        <ele>992.91015625</ele>
        <time>2012-06-07T22:50:51Z</time>
      </trkpt>
      <trkpt lat="44.77969" lon="3.39097">
        <ele>985.0546875</ele>
        <time>2012-06-07T22:51:11Z</time>
      </trkpt>
      <trkpt lat="44.78" lon="3.39024">
        <ele>977.92578125</ele>
        <time>2012-06-07T22:51:31Z</time>
      </trkpt>
      <trkpt lat="44.78067" lon="3.38955">
        <ele>973.6484375</ele>
        <time>2012-06-07T22:51:51Z</time>
      </trkpt>
      <trkpt lat="44.78109" lon="3.38924">
        <ele>973.234375</ele>
        <time>2012-06-07T22:52:11Z</time>
      </trkpt>
      <trkpt lat="44.78106" lon="3.38888">
        <ele>969.2265625</ele>
        <time>2012-06-07T22:52:31Z</time>
      </trkpt>
      <trkpt lat="44.78132" lon="3.38825">
        <ele>964.23828125</ele>
        <time>2012-06-07T22:52:51Z</time>
      </trkpt>
      <trkpt lat="44.78163" lon="3.38834">
        <ele>965.984375</ele>
        <time>2012-06-07T22:53:11Z</time>
      </trkpt>
      <trkpt lat="44.78215" lon="3.38836">
        <ele>967.0546875</ele>
        <time>2012-06-07T22:53:31Z</time>
      </trkpt>
      <trkpt lat="44.78232" lon="3.38821">
        <ele>965.953125</ele>
        <time>2012-06-07T22:53:51Z</time>
      </trkpt>
      <trkpt lat="44.78194" lon="3.38804">
        <ele>964.10546875</ele>
        <time>2012-06-07T22:54:11Z</time>
      </trkpt>
      <trkpt lat="44.78145" lon="3.38801">
        <ele>962.92578125</ele>
        <time>2012-06-07T22:54:31Z</time>
      </trkpt>
      <trkpt lat="44.78088" lon="3.38775">
        <ele>958.44140625</ele>
        <time>2012-06-07T22:54:51Z</time>
      </trkpt>
      <trkpt lat="44.78095" lon="3.38749">
        <ele>956.63671875</ele>
        <time>2012-06-07T22:55:11Z</time>
      </trkpt>
      <trkpt lat="44.78086" lon="3.38725">
        <ele>954.3984375</ele>
        <time>2012-06-07T22:55:31Z</time>
      </trkpt>
      <trkpt lat="44.78083" lon="3.38625">
        <ele>949.12890625</ele>
        <time>2012-06-07T22:55:51Z</time>
      </trkpt>
      <trkpt lat="44.78015" lon="3.38554">
        <ele>942.2734375</ele>
        <time>2012-06-07T22:56:11Z</time>
      </trkpt>
      <trkpt lat="44.77939" lon="3.38502">
        <ele>937.5078125</ele>
        <time>2012-06-07T22:56:31Z</time>
      </trkpt>
      <trkpt lat="44.77776" lon="3.37973">
        <ele>939</ele>
        <time>2012-06-07T22:56:51Z</time>
      </trkpt>
      <trkpt lat="44.77753" lon="3.37929">
        <ele>939</ele>
        <time>2012-06-07T22:57:11Z</time>
      </trkpt>
      <trkpt lat="44.7776" lon="3.37914">
        <ele>939</ele>
        <time>2012-06-07T22:57:31Z</time>
      </trkpt>
      <trkpt lat="44.77821" lon="3.37898">
        <ele>939</ele>
        <time>2012-06-07T22:57:51Z</time>
      </trkpt>
      <trkpt lat="44.77876" lon="3.37813">
        <ele>938.26171875</ele>
        <time>2012-06-07T22:58:11Z</time>
      </trkpt>
      <trkpt lat="44.77879" lon="3.37767">
        <ele>938.13671875</ele>
        <time>2012-06-07T22:58:31Z</time>
      </trkpt>
      <trkpt lat="44.77833" lon="3.37682">
        <ele>940.78515625</ele>
        <time>2012-06-07T22:58:51Z</time>
      </trkpt>
      <trkpt lat="44.77813" lon="3.3766">
        <ele>941.52734375</ele>
        <time>2012-06-07T22:59:11Z</time>
      </trkpt>
      <trkpt lat="44.77762" lon="3.37546">
        <ele>944.62109375</ele>
        <time>2012-06-07T22:59:31Z</time>
      </trkpt>
      <trkpt lat="44.77739" lon="3.37464">
        <ele>947.71484375</ele>
        <time>2012-06-07T22:59:51Z</time>
      </trkpt>
      <trkpt lat="44.77741" lon="3.37374">
        <ele>953.078125</ele>
        <time>2012-06-07T23:00:11Z</time>
      </trkpt>
      <trkpt lat="44.77753" lon="3.37328">
        <ele>958.296875</ele>
        <time>2012-06-07T23:00:31Z</time>
      </trkpt>
      <trkpt lat="44.7774" lon="3.37218">
        <ele>966.5859375</ele>
        <time>2012-06-07T23:00:51Z</time>
      </trkpt>
      <trkpt lat="44.77736" lon="3.37129">
        <ele>977.09375</ele>
        <time>2012-06-07T23:01:11Z</time>
      </trkpt>
      <trkpt lat="44.77715" lon="3.37019">
        <ele>978.8046875</ele>
        <time>2012-06-07T23:01:31Z</time>
      </trkpt>
      <trkpt lat="44.77698" lon="3.36994">
        <ele>972.96875</ele>
        <time>2012-06-07T23:01:51Z</time>
      </trkpt>
      <trkpt lat="44.77705" lon="3.36966">
        <ele>968.42578125</ele>
        <time>2012-06-07T23:02:11Z</time>
      </trkpt>
      <trkpt lat="44.77807" lon="3.36874">
        <ele>957.4296875</ele>
        <time>2012-06-07T23:02:31Z</time>
      </trkpt>
      <trkpt lat="44.77858" lon="3.36858">
        <ele>956.76171875</ele>
        <time>2012-06-07T23:02:51Z</time>
      </trkpt>
      <trkpt lat="44.77911" lon="3.36795">
        <ele>951.125</ele>
        <time>2012-06-07T23:03:11Z</time>
      </trkpt>
      <trkpt lat="44.77918" lon="3.36736">
        <ele>943.328125</ele>
        <time>2012-06-07T23:03:31Z</time>
      </trkpt>
      <trkpt lat="44.77933" lon="3.36704">
        <ele>940.59765625</ele>
        <time>2012-06-07T23:03:51Z</time>
      </trkpt>
      <trkpt lat="44.77896" lon="3.36702">
        <ele>936.67578125</ele>
        <time>2012-06-07T23:04:11Z</time>
      </trkpt>
      <trkpt lat="44.77894" lon="3.36692">
        <ele>935.8125</ele>
        <time>2012-06-07T23:04:31Z</time>
      </trkpt>
      <trkpt lat="44.7785" lon="3.36707">
        <ele>932.34375</ele>
        <time>2012-06-07T23:04:51Z</time>
      </trkpt>
      <trkpt lat="44.77814" lon="3.36699">
        <ele>928.96484375</ele>
        <time>2012-06-07T23:05:11Z</time>
      </trkpt>
      <trkpt lat="44.77715" lon="3.36708">
        <ele>921.625</ele>
        <time>2012-06-07T23:05:31Z</time>
      </trkpt>
      <trkpt lat="44.77729" lon="3.3662">
        <ele>918.32421875</ele>
        <time>2012-06-07T23:05:51Z</time>
      </trkpt>
      <trkpt lat="44.77725" lon="3.36515">
        <ele>917.01953125</ele>
        <time>2012-06-07T23:06:11Z</time>
      </trkpt>
      <trkpt lat="44.77693" lon="3.36498">
        <ele>918.4375</ele>
        <time>2012-06-07T23:06:31Z</time>
      </trkpt>
      <trkpt lat="44.77649" lon="3.36489">
        <ele>923.2265625</ele>
        <time>2012-06-07T23:06:51Z</time>
      </trkpt>
      <trkpt lat="44.77645" lon="3.36436">
        <ele>926.84765625</ele>
        <time>2012-06-07T23:07:11Z</time>
      </trkpt>
      <trkpt lat="44.77631" lon="3.36423">
        <ele>930.68359375</ele>
        <time>2012-06-07T23:07:31Z</time>
      </trkpt>
      <trkpt lat="44.77644" lon="3.36378">
        <ele>927.51171875</ele>
        <time>2012-06-07T23:07:51Z</time>
      </trkpt>
      <trkpt lat="44.77633" lon="3.36365">
        <ele>928.5703125</ele>
        <time>2012-06-07T23:08:11Z</time>
      </trkpt>
      <trkpt lat="44.77625" lon="3.36378">
        <ele>931.05859375</ele>
        <time>2012-06-07T23:08:31Z</time>
      </trkpt>
      <trkpt lat="44.77627" lon="3.36401">
        <ele>931.78515625</ele>
        <time>2012-06-07T23:08:51Z</time>
      </trkpt>
      <trkpt lat="44.77498" lon="3.36397">
        <ele>945.78125</ele>
        <time>2012-06-07T23:09:11Z</time>
      </trkpt>
      <trkpt lat="44.77476" lon="3.36406">
        <ele>950.30078125</ele>
        <time>2012-06-07T23:09:31Z</time>
      </trkpt>
      <trkpt lat="44.77403" lon="3.36399">
        <ele>961.14453125</ele>
        <time>2012-06-07T23:09:51Z</time>
      </trkpt>
      <trkpt lat="44.77329" lon="3.36365">
        <ele>966.92578125</ele>
        <time>2012-06-07T23:10:11Z</time>
      </trkpt>
      <trkpt lat="44.77313" lon="3.36318">
        <ele>970.359375</ele>
        <time>2012-06-07T23:10:31Z</time>
      </trkpt>
      <trkpt lat="44.77313" lon="3.36308">
        <ele>970.8984375</ele>
        <time>2012-06-07T23:10:51Z</time>
      </trkpt>
      <trkpt lat="44.77305" lon="3.36259">
        <ele>973.51171875</ele>
        <time>2012-06-07T23:11:11Z</time>
      </trkpt>
      <trkpt lat="44.7729" lon="3.36239">
        <ele>976.07421875</ele>
        <time>2012-06-07T23:11:31Z</time>
      </trkpt>
      <trkpt lat="44.77221" lon="3.36187">
        <ele>984.484375</ele>
        <time>2012-06-07T23:11:51Z</time>
      </trkpt>
      <trkpt lat="44.77197" lon="3.3615">
        <ele>987.92578125</ele>
        <time>2012-06-07T23:12:11Z</time>
      </trkpt>
      <trkpt lat="44.77188" lon="3.36147">
        <ele>989.40234375</ele>
        <time>2012-06-07T23:12:31Z</time>
      </trkpt>
      <trkpt lat="44.76992" lon="3.35923">
        <ele>1018.03515625</ele>
        <time>2012-06-07T23:12:51Z</time>
      </trkpt>
      <trkpt lat="44.76934" lon="3.35888">
        <ele>1021.53125</ele>
        <time>2012-06-07T23:13:11Z</time>
      </trkpt>
      <trkpt lat="44.76916" lon="3.35897">
        <ele>1022.05078125</ele>
        <time>2012-06-07T23:13:31Z</time>
      </trkpt>
      <trkpt lat="44.7689" lon="3.35891">
        <ele>1023.7578125</ele>
        <time>2012-06-07T23:13:51Z</time>
      </trkpt>
      <trkpt lat="44.76866" lon="3.3589">
        <ele>1025.0703125</ele>
        <time>2012-06-07T23:14:11Z</time>
      </trkpt>
      <trkpt lat="44.76764" lon="3.35849">
        <ele>1032.48046875</ele>
        <time>2012-06-07T23:14:31Z</time>
      </trkpt>
      <trkpt lat="44.76665" lon="3.35787">
        <ele>1037.04296875</ele>
        <time>2012-06-07T23:14:51Z</time>
      </trkpt>
      <trkpt lat="44.76618" lon="3.35794">
        <ele>1035.43359375</ele>
        <time>2012-06-07T23:15:11Z</time>
      </trkpt>
      <trkpt lat="44.76583" lon="3.35783">
        <ele>1034.16796875</ele>
        <time>2012-06-07T23:15:31Z</time>
      </trkpt>
      <trkpt lat="44.76502" lon="3.35783">
        <ele>1031.26953125</ele>
        <time>2012-06-07T23:15:51Z</time>
      </trkpt>
      <trkpt lat="44.76423" lon="3.35713">
        <ele>1028.4140625</ele>
        <time>2012-06-07T23:16:11Z</time>
      </trkpt>
      <trkpt lat="44.763" lon="3.35697">
        <ele>1026</ele>
        <time>2012-06-07T23:16:31Z</time>
      </trkpt>
      <trkpt lat="44.76248" lon="3.35703">
        <ele>1025.71484375</ele>
        <time>2012-06-07T23:16:51Z</time>
      </trkpt>
      <trkpt lat="44.76142" lon="3.3569">
        <ele>1021.83984375</ele>
        <time>2012-06-07T23:17:11Z</time>
      </trkpt>
      <trkpt lat="44.76138" lon="3.35633">
        <ele>1016.8671875</ele>
        <time>2012-06-07T23:17:31Z</time>
      </trkpt>
      <trkpt lat="44.76114" lon="3.35585">
        <ele>1011.8046875</ele>
        <time>2012-06-07T23:17:51Z</time>
      </trkpt>
      <trkpt lat="44.76065" lon="3.35577">
        <ele>1010.41015625</ele>
        <time>2012-06-07T23:18:11Z</time>
      </trkpt>
      <trkpt lat="44.76015" lon="3.35614">
        <ele>1011.5546875</ele>
        <time>2012-06-07T23:18:31Z</time>
      </trkpt>
      <trkpt lat="44.75983" lon="3.35623">
        <ele>1013.95703125</ele>
        <time>2012-06-07T23:18:51Z</time>
      </trkpt>
      <trkpt lat="44.75877" lon="3.35708">
        <ele>1020.21484375</ele>
        <time>2012-06-07T23:19:11Z</time>
      </trkpt>
      <trkpt lat="44.757" lon="3.35801">
        <ele>1026.71875</ele>
        <time>2012-06-07T23:19:31Z</time>
      </trkpt>
      <trkpt lat="44.75619" lon="3.3584">
        <ele>1026.9921875</ele>
        <time>2012-06-07T23:19:51Z</time>
      </trkpt>
      <trkpt lat="44.75544" lon="3.35852">
        <ele>1026.796875</ele>
        <time>2012-06-07T23:20:11Z</time>
      </trkpt>
      <trkpt lat="44.75437" lon="3.35842">
        <ele>1021.7890625</ele>
        <time>2012-06-07T23:20:31Z</time>
      </trkpt>
      <trkpt lat="44.75374" lon="3.35827">
        <ele>1023.34375</ele>
        <time>2012-06-07T23:20:51Z</time>
      </trkpt>
      <trkpt lat="44.75292" lon="3.35722">
        <ele>1026.296875</ele>
        <time>2012-06-07T23:21:11Z</time>
      </trkpt>
      <trkpt lat="44.75172" lon="3.35593">
        <ele>1032.94140625</ele>
        <time>2012-06-07T23:21:31Z</time>
      </trkpt>
      <trkpt lat="44.75162" lon="3.35549">
        <ele>1034</ele>
        <time>2012-06-07T23:21:51Z</time>
      </trkpt>
      <trkpt lat="44.75044" lon="3.35469">
        <ele>1031.72265625</ele>
        <time>2012-06-07T23:22:11Z</time>
      </trkpt>
      <trkpt lat="44.74938" lon="3.35423">
        <ele>1029.26171875</ele>
        <time>2012-06-07T23:22:31Z</time>
      </trkpt>
      <trkpt lat="44.74874" lon="3.35342">
        <ele>1024.90234375</ele>
        <time>2012-06-07T23:22:51Z</time>
      </trkpt>
      <trkpt lat="44.74856" lon="3.35287">
        <ele>1021.2265625</ele>
        <time>2012-06-07T23:23:11Z</time>
      </trkpt>
      <trkpt lat="44.74776" lon="3.35137">
        <ele>1020.75</ele>
        <time>2012-06-07T23:23:31Z</time>
      </trkpt>
      <trkpt lat="44.74706" lon="3.35064">
        <ele>1020.71875</ele>
        <time>2012-06-07T23:23:51Z</time>
      </trkpt>
      <trkpt lat="44.74619" lon="3.35015">
        <ele>1020.8359375</ele>
        <time>2012-06-07T23:24:11Z</time>
      </trkpt>
      <trkpt lat="44.7455" lon="3.35015">
        <ele>1021.83203125</ele>
        <time>2012-06-07T23:24:31Z</time>
      </trkpt>
      <trkpt lat="44.74504" lon="3.35041">
        <ele>1020.14453125</ele>
        <time>2012-06-07T23:24:51Z</time>
      </trkpt>
      <trkpt lat="44.74469" lon="3.3511">
        <ele>1018.3359375</ele>
        <time>2012-06-07T23:25:11Z</time>
      </trkpt>
      <trkpt lat="44.74439" lon="3.35216">
        <ele>1008.6015625</ele>
        <time>2012-06-07T23:25:31Z</time>
      </trkpt>
      <trkpt lat="44.74397" lon="3.35282">
        <ele>999.4921875</ele>
        <time>2012-06-07T23:25:51Z</time>
      </trkpt>
      <trkpt lat="44.74339" lon="3.35303">
        <ele>984.53515625</ele>
        <time>2012-06-07T23:26:11Z</time>
      </trkpt>
      <trkpt lat="44.74281" lon="3.3529">
        <ele>972.57421875</ele>
        <time>2012-06-07T23:26:31Z</time>
      </trkpt>
      <trkpt lat="44.74173" lon="3.35306">
        <ele>948.33203125</ele>
        <time>2012-06-07T23:26:51Z</time>
      </trkpt>
      <trkpt lat="44.74162" lon="3.35298">
        <ele>945.890625</ele>
        <time>2012-06-07T23:27:11Z</time>
      </trkpt>
      <trkpt lat="44.74143" lon="3.35311">
        <ele>942.0703125</ele>
        <time>2012-06-07T23:27:31Z</time>
      </trkpt>
      <trkpt lat="44.7412" lon="3.35287">
        <ele>937.515625</ele>
        <time>2012-06-07T23:27:51Z</time>
      </trkpt>
      <trkpt lat="44.74112" lon="3.35325">
        <ele>936.93359375</ele>
        <time>2012-06-07T23:28:11Z</time>
      </trkpt>
      <trkpt lat="44.74102" lon="3.35292">
        <ele>935.6640625</ele>
        <time>2012-06-07T23:28:31Z</time>
      </trkpt>
      <trkpt lat="44.741" lon="3.35106">
        <ele>934</ele>
        <time>2012-06-07T23:28:51Z</time>
      </trkpt>
      <trkpt lat="44.74014" lon="3.34996">
        <ele>935.20703125</ele>
        <time>2012-06-07T23:29:11Z</time>
      </trkpt>
      <trkpt lat="44.73985" lon="3.34904">
        <ele>930.90234375</ele>
        <time>2012-06-07T23:29:31Z</time>
      </trkpt>
      <trkpt lat="44.74019" lon="3.34824">
        <ele>934.17578125</ele>
        <time>2012-06-07T23:29:51Z</time>
      </trkpt>
      <trkpt lat="44.74063" lon="3.34767">
        <ele>938.30078125</ele>
        <time>2012-06-07T23:30:11Z</time>
      </trkpt>
      <trkpt lat="44.7405" lon="3.34727">
        <ele>943.62890625</ele>
        <time>2012-06-07T23:30:31Z</time>
      </trkpt>
      <trkpt lat="44.74089" lon="3.34615">
        <ele>948.6953125</ele>
        <time>2012-06-07T23:30:51Z</time>
      </trkpt>
      <trkpt lat="44.74087" lon="3.34579">
        <ele>948.83203125</ele>
        <time>2012-06-07T23:31:11Z</time>
      </trkpt>
      <trkpt lat="44.74059" lon="3.34548">
        <ele>951.86328125</ele>
        <time>2012-06-07T23:31:31Z</time>
      </trkpt>
      <trkpt lat="44.74008" lon="3.34545">
        <ele>959.765625</ele>
        <time>2012-06-07T23:31:51Z</time>
      </trkpt>
      <trkpt lat="44.73945" lon="3.34573">
        <ele>969.37109375</ele>
        <time>2012-06-07T23:32:11Z</time>
      </trkpt>
      <trkpt lat="44.73811" lon="3.34458">
        <ele>985.578125</ele>
        <time>2012-06-07T23:32:31Z</time>
      </trkpt>
      <trkpt lat="44.7378" lon="3.3444">
        <ele>989.78515625</ele>
        <time>2012-06-07T23:32:51Z</time>
      </trkpt>
      <trkpt lat="44.73738" lon="3.34391">
        <ele>998.546875</ele>
        <time>2012-06-07T23:33:11Z</time>
      </trkpt>
      <trkpt lat="44.73727" lon="3.34352">
        <ele>999.05078125</ele>
        <time>2012-06-07T23:33:31Z</time>
      </trkpt>
      <trkpt lat="44.73648" lon="3.34219">
        <ele>997.52734375</ele>
        <time>2012-06-07T23:33:51Z</time>
      </trkpt>
      <trkpt lat="44.73595" lon="3.34103">
        <ele>996.53515625</ele>
        <time>2012-06-07T23:34:11Z</time>
      </trkpt>
      <trkpt lat="44.73578" lon="3.34106">
        <ele>995.87109375</ele>
        <time>2012-06-07T23:34:31Z</time>
      </trkpt>
      <trkpt lat="44.73455" lon="3.34012">
        <ele>979.078125</ele>
        <time>2012-06-07T23:34:51Z</time>
      </trkpt>
      <trkpt lat="44.73403" lon="3.3399">
        <ele>971.25390625</ele>
        <time>2012-06-07T23:35:11Z</time>
      </trkpt>
      <trkpt lat="44.73414" lon="3.3393">
        <ele>972.07421875</ele>
        <time>2012-06-07T23:35:31Z</time>
      </trkpt>
      <trkpt lat="44.73416" lon="3.33855">
        <ele>973.19140625</ele>
        <time>2012-06-07T23:35:51Z</time>
      </trkpt>
      <trkpt lat="44.73453" lon="3.33812">
        <ele>977.5</ele>
        <time>2012-06-07T23:36:11Z</time>
      </trkpt>
      <trkpt lat="44.73461" lon="3.33733">
        <ele>977.79296875</ele>
        <time>2012-06-07T23:36:31Z</time>
      </trkpt>
      <trkpt lat="44.73444" lon="3.33671">
        <ele>978.8125</ele>
        <time>2012-06-07T23:36:51Z</time>
      </trkpt>
      <trkpt lat="44.73447" lon="3.33567">
        <ele>980.3125</ele>
        <time>2012-06-07T23:37:11Z</time>
      </trkpt>
      <trkpt lat="44.7348" lon="3.3347">
        <ele>982.28515625</ele>
        <time>2012-06-07T23:37:31Z</time>
      </trkpt>
      <trkpt lat="44.7347" lon="3.33394">
        <ele>984.265625</ele>
        <time>2012-06-07T23:37:51Z</time>
      </trkpt>
      <trkpt lat="44.7343" lon="3.33292">
        <ele>985.359375</ele>
        <time>2012-06-07T23:38:11Z</time>
      </trkpt>
      <trkpt lat="44.73391" lon="3.33253">
        <ele>984.65234375</ele>
        <time>2012-06-07T23:38:31Z</time>
      </trkpt>
      <trkpt lat="44.73375" lon="3.33252">
        <ele>986.0859375</ele>
        <time>2012-06-07T23:38:51Z</time>
      </trkpt>
      <trkpt lat="44.73336" lon="3.33217">
        <ele>991.2265625</ele>
        <time>2012-06-07T23:39:11Z</time>
      </trkpt>
      <trkpt lat="44.73265" lon="3.3305">
        <ele>989.2578125</ele>
        <time>2012-06-07T23:39:31Z</time>
      </trkpt>
      <trkpt lat="44.7323" lon="3.3301">
        <ele>991.13671875</ele>
        <time>2012-06-07T23:39:51Z</time>
      </trkpt>
      <trkpt lat="44.73184" lon="3.32989">
        <ele>997.6796875</ele>
        <time>2012-06-07T23:40:11Z</time>
      </trkpt>
      <trkpt lat="44.73131" lon="3.33041">
        <ele>1004.5234375</ele>
        <time>2012-06-07T23:40:31Z</time>
      </trkpt>
      <trkpt lat="44.73105" lon="3.33035">
        <ele>1007.29296875</ele>
        <time>2012-06-07T23:40:51Z</time>
      </trkpt>
      <trkpt lat="44.73066" lon="3.32994">
        <ele>1010.1640625</ele>
        <time>2012-06-07T23:41:11Z</time>
      </trkpt>
      <trkpt lat="44.72937" lon="3.32996">
        <ele>1022.8515625</ele>
        <time>2012-06-07T23:41:31Z</time>
      </trkpt>
      <trkpt lat="44.7286" lon="3.33037">
        <ele>1032.78515625</ele>
        <time>2012-06-07T23:41:51Z</time>
      </trkpt>
      <trkpt lat="44.72759" lon="3.33135">
        <ele>1039.12109375</ele>
        <time>2012-06-07T23:42:11Z</time>
      </trkpt>
      <trkpt lat="44.72612" lon="3.33181">
        <ele>1044.69921875</ele>
        <time>2012-06-07T23:42:31Z</time>
      </trkpt>
      <trkpt lat="44.72596" lon="3.3317">
        <ele>1045</ele>
        <time>2012-06-07T23:42:51Z</time>
      </trkpt>
      <trkpt lat="44.72573" lon="3.33117">
        <ele>1045.265625</ele>
        <time>2012-06-07T23:43:11Z</time>
      </trkpt>
      <trkpt lat="44.72463" lon="3.32937">
        <ele>1045.703125</ele>
        <time>2012-06-07T23:43:31Z</time>
      </trkpt>
      <trkpt lat="44.72417" lon="3.3277">
        <ele>1049.11328125</ele>
        <time>2012-06-07T23:43:51Z</time>
      </trkpt>
      <trkpt lat="44.72388" lon="3.32691">
        <ele>1047.0703125</ele>
        <time>2012-06-07T23:44:11Z</time>
      </trkpt>
      <trkpt lat="44.72395" lon="3.32568">
        <ele>1048.171875</ele>
        <time>2012-06-07T23:44:31Z</time>
      </trkpt>
      <trkpt lat="44.72436" lon="3.32269">
        <ele>1051.0078125</ele>
        <time>2012-06-07T23:44:51Z</time>
      </trkpt>
      <trkpt lat="44.7243" lon="3.32139">
        <ele>1054.73046875</ele>
        <time>2012-06-07T23:45:11Z</time>
      </trkpt>
      <trkpt lat="44.72451" lon="3.32091">
        <ele>1055</ele>
        <time>2012-06-07T23:45:31Z</time>
      </trkpt>
      <trkpt lat="44.72481" lon="3.32046">
        <ele>1055.65234375</ele>
        <time>2012-06-07T23:45:51Z</time>
      </trkpt>
      <trkpt lat="44.72491" lon="3.3196">
        <ele>1058.65234375</ele>
        <time>2012-06-07T23:46:11Z</time>
      </trkpt>
      <trkpt lat="44.72504" lon="3.31896">
        <ele>1058.26171875</ele>
        <time>2012-06-07T23:46:31Z</time>
      </trkpt>
      <trkpt lat="44.72519" lon="3.31701">
        <ele>1061.6484375</ele>
        <time>2012-06-07T23:46:51Z</time>
      </trkpt>
      <trkpt lat="44.72522" lon="3.3161">
        <ele>1063.87109375</ele>
        <time>2012-06-07T23:47:11Z</time>
      </trkpt>
      <trkpt lat="44.72537" lon="3.31509">
        <ele>1067</ele>
        <time>2012-06-07T23:47:31Z</time>
      </trkpt>
      <trkpt lat="44.72539" lon="3.31422">
        <ele>1068.546875</ele>
        <time>2012-06-07T23:47:51Z</time>
      </trkpt>
      <trkpt lat="44.72553" lon="3.31305">
        <ele>1074.51171875</ele>
        <time>2012-06-07T23:48:11Z</time>
      </trkpt>
      <trkpt lat="44.72557" lon="3.31052">
        <ele>1085.859375</ele>
        <time>2012-06-07T23:48:31Z</time>
      </trkpt>
      <trkpt lat="44.72554" lon="3.30914">
        <ele>1088.99609375</ele>
        <time>2012-06-07T23:48:51Z</time>
      </trkpt>
      <trkpt lat="44.72519" lon="3.30757">
        <ele>1095.39453125</ele>
        <time>2012-06-07T23:49:11Z</time>
      </trkpt>
      <trkpt lat="44.72471" lon="3.30751">
        <ele>1095.44140625</ele>
        <time>2012-06-07T23:49:31Z</time>
      </trkpt>
      <trkpt lat="44.7244" lon="3.30723">
        <ele>1095.67578125</ele>
        <time>2012-06-07T23:49:51Z</time>
      </trkpt>
      <trkpt lat="44.72397" lon="3.30651">
        <ele>1097.88671875</ele>
        <time>2012-06-07T23:50:11Z</time>
      </trkpt>
      <trkpt lat="44.72306" lon="3.30613">
        <ele>1093.61328125</ele>
        <time>2012-06-07T23:50:31Z</time>
      </trkpt>
      <trkpt lat="44.72281" lon="3.3059">
        <ele>1092.625</ele>
        <time>2012-06-07T23:50:51Z</time>
      </trkpt>
      <trkpt lat="44.72183" lon="3.30425">
        <ele>1091.66015625</ele>
        <time>2012-06-07T23:51:11Z</time>
      </trkpt>
      <trkpt lat="44.72111" lon="3.30361">
        <ele>1087.046875</ele>
        <time>2012-06-07T23:51:31Z</time>
      </trkpt>
      <trkpt lat="44.72091" lon="3.30309">
        <ele>1085.0546875</ele>
        <time>2012-06-07T23:51:51Z</time>
      </trkpt>
      <trkpt lat="44.72101" lon="3.30245">
        <ele>1084.96875</ele>
        <time>2012-06-07T23:52:11Z</time>
      </trkpt>
      <trkpt lat="44.72148" lon="3.30141">
        <ele>1088.9609375</ele>
        <time>2012-06-07T23:52:31Z</time>
      </trkpt>
      <trkpt lat="44.72138" lon="3.30012">
        <ele>1088.390625</ele>
        <time>2012-06-07T23:52:51Z</time>
      </trkpt>
      <trkpt lat="44.72096" lon="3.29868">
        <ele>1090.96875</ele>
        <time>2012-06-07T23:53:11Z</time>
      </trkpt>
      <trkpt lat="44.72102" lon="3.29864">
        <ele>1090.89453125</ele>
        <time>2012-06-07T23:53:31Z</time>
      </trkpt>
      <trkpt lat="44.72091" lon="3.29814">
        <ele>1092.26953125</ele>
        <time>2012-06-07T23:53:51Z</time>
      </trkpt>
      <trkpt lat="44.72072" lon="3.29626">
        <ele>1083.5859375</ele>
        <time>2012-06-07T23:54:11Z</time>
      </trkpt>
      <trkpt lat="44.72033" lon="3.2957">
        <ele>1079.19921875</ele>
        <time>2012-06-07T23:54:31Z</time>
      </trkpt>
      <trkpt lat="44.72018" lon="3.29489">
        <ele>1077.58984375</ele>
        <time>2012-06-07T23:54:51Z</time>
      </trkpt>
      <trkpt lat="44.72081" lon="3.29242">
        <ele>1088.046875</ele>
        <time>2012-06-07T23:55:11Z</time>
      </trkpt>
      <trkpt lat="44.72097" lon="3.29202">
        <ele>1087.19140625</ele>
        <time>2012-06-07T23:55:31Z</time>
      </trkpt>
      <trkpt lat="44.72176" lon="3.28874">
        <ele>1069.27734375</ele>
        <time>2012-06-07T23:55:51Z</time>
      </trkpt>
      <trkpt lat="44.72239" lon="3.28702">
        <ele>1057.5859375</ele>
        <time>2012-06-07T23:56:11Z</time>
      </trkpt>
      <trkpt lat="44.72326" lon="3.2855">
        <ele>1050.33984375</ele>
        <time>2012-06-07T23:56:31Z</time>
      </trkpt>
      <trkpt lat="44.72322" lon="3.28494">
        <ele>1050.59765625</ele>
        <time>2012-06-07T23:56:51Z</time>
      </trkpt>
    </trkseg>
  </trk>
</gpx>